Terminal Aerodrome Forecast
Issued by NWS Boise, ID

Home | Current Version | Previous Version | Text Only | Print | Product List | Glossary On
Versions: 1 2 3 4 5 6 7 8 9 10 11 12 13 14 15 16 17
000
FTUS45 KBOI 251736
TAFBOI
TAF
KBOI 251736Z 2518/2618 13010KT P6SM BKN200
     FM252300 14014G21KT P6SM BKN120
     FM260500 12012KT P6SM VCSH SCT060 BKN100
     FM261000 33010KT P6SM -RA BKN050 OVC080=

USA.gov is the U.S. government's official web portal to all federal, state and local government web resources and services.